sensor_id;sensor_type;location;lat;lon;timestamp;temperature;humidity
17740;DHT22;8990;33.226;-97.150;2024-02-26T00:00:44;26.60;86.30
17740;DHT22;8990;33.226;-97.150;2024-02-26T00:03:13;26.40;86.20
17740;DHT22;8990;33.226;-97.150;2024-02-26T00:05:42;26.30;86.90
17740;DHT22;8990;33.226;-97.150;2024-02-26T00:08:11;26.10;86.60
17740;DHT22;8990;33.226;-97.150;2024-02-26T00:10:41;25.90;87.20
17740;DHT22;8990;33.226;-97.150;2024-02-26T00:13:11;25.80;89.60
17740;DHT22;8990;33.226;-97.150;2024-02-26T00:15:40;25.60;90.10
17740;DHT22;8990;33.226;-97.150;2024-02-26T00:18:09;25.40;90.80
17740;DHT22;8990;33.226;-97.150;2024-02-26T00:20:38;25.20;90.90
17740;DHT22;8990;33.226;-97.150;2024-02-26T00:23:10;25.00;91.30
17740;DHT22;8990;33.226;-97.150;2024-02-26T00:25:40;24.90;91.80
17740;DHT22;8990;33.226;-97.150;2024-02-26T00:28:10;24.60;91.60
17740;DHT22;8990;33.226;-97.150;2024-02-26T00:30:40;24.30;91.50
17740;DHT22;8990;33.226;-97.150;2024-02-26T00:33:09;24.10;92.30
17740;DHT22;8990;33.226;-97.150;2024-02-26T00:35:38;23.90;92.80
17740;DHT22;8990;33.226;-97.150;2024-02-26T00:38:07;23.70;93.30
17740;DHT22;8990;33.226;-97.150;2024-02-26T00:40:36;23.50;93.20
17740;DHT22;8990;33.226;-97.150;2024-02-26T00:43:06;23.40;93.30
17740;DHT22;8990;33.226;-97.150;2024-02-26T00:45:36;23.20;93.80
17740;DHT22;8990;33.226;-97.150;2024-02-26T00:48:05;23.10;94.30
17740;DHT22;8990;33.226;-97.150;2024-02-26T00:50:35;23.00;94.80
17740;DHT22;8990;33.226;-97.150;2024-02-26T00:53:04;22.80;94.40
17740;DHT22;8990;33.226;-97.150;2024-02-26T00:55:35;22.70;94.40
17740;DHT22;8990;33.226;-97.150;2024-02-26T00:58:04;22.50;95.00
17740;DHT22;8990;33.226;-97.150;2024-02-26T01:00:34;22.40;95.00
17740;DHT22;8990;33.226;-97.150;2024-02-26T01:03:04;22.30;95.00
17740;DHT22;8990;33.226;-97.150;2024-02-26T01:05:34;22.10;95.20
17740;DHT22;8990;33.226;-97.150;2024-02-26T01:08:03;22.00;95.20
17740;DHT22;8990;33.226;-97.150;2024-02-26T01:10:32;21.80;95.50
17740;DHT22;8990;33.226;-97.150;2024-02-26T01:13:01;21.80;95.80
17740;DHT22;8990;33.226;-97.150;2024-02-26T01:15:30;21.60;95.80
17740;DHT22;8990;33.226;-97.150;2024-02-26T01:18:00;21.50;95.90
17740;DHT22;8990;33.226;-97.150;2024-02-26T01:20:29;21.30;96.10
17740;DHT22;8990;33.226;-97.150;2024-02-26T01:22:58;21.20;96.20
17740;DHT22;8990;33.226;-97.150;2024-02-26T01:25:27;21.10;96.50
17740;DHT22;8990;33.226;-97.150;2024-02-26T01:27:56;20.90;96.80
17740;DHT22;8990;33.226;-97.150;2024-02-26T01:30:25;20.80;96.90
17740;DHT22;8990;33.226;-97.150;2024-02-26T01:32:54;20.70;96.80
17740;DHT22;8990;33.226;-97.150;2024-02-26T01:35:25;20.70;96.90
17740;DHT22;8990;33.226;-97.150;2024-02-26T01:37:54;20.60;96.80
17740;DHT22;8990;33.226;-97.150;2024-02-26T01:40:23;20.50;97.50
17740;DHT22;8990;33.226;-97.150;2024-02-26T01:42:53;20.40;97.50
17740;DHT22;8990;33.226;-97.150;2024-02-26T01:45:22;20.30;97.20
17740;DHT22;8990;33.226;-97.150;2024-02-26T01:47:52;20.30;97.60
17740;DHT22;8990;33.226;-97.150;2024-02-26T01:50:21;20.20;97.50
17740;DHT22;8990;33.226;-97.150;2024-02-26T01:52:53;20.10;97.10
17740;DHT22;8990;33.226;-97.150;2024-02-26T01:55:24;20.00;97.00
17740;DHT22;8990;33.226;-97.150;2024-02-26T01:57:55;20.00;96.70
17740;DHT22;8990;33.226;-97.150;2024-02-26T02:00:25;20.00;97.00
17740;DHT22;8990;33.226;-97.150;2024-02-26T02:02:55;19.90;97.60
17740;DHT22;8990;33.226;-97.150;2024-02-26T02:05:24;19.80;97.80
17740;DHT22;8990;33.226;-97.150;2024-02-26T02:07:55;19.80;97.60
17740;DHT22;8990;33.226;-97.150;2024-02-26T02:10:25;19.60;98.40
17740;DHT22;8990;33.226;-97.150;2024-02-26T02:12:54;19.40;99.00
17740;DHT22;8990;33.226;-97.150;2024-02-26T02:15:23;19.30;99.00
17740;DHT22;8990;33.226;-97.150;2024-02-26T02:17:52;19.20;99.10
17740;DHT22;8990;33.226;-97.150;2024-02-26T02:20:26;19.10;99.50
17740;DHT22;8990;33.226;-97.150;2024-02-26T02:22:55;18.90;99.80
17740;DHT22;8990;33.226;-97.150;2024-02-26T02:25:24;18.80;99.90
17740;DHT22;8990;33.226;-97.150;2024-02-26T02:27:54;18.70;99.90
17740;DHT22;8990;33.226;-97.150;2024-02-26T02:30:26;18.60;99.90
17740;DHT22;8990;33.226;-97.150;2024-02-26T02:32:57;18.60;99.90
17740;DHT22;8990;33.226;-97.150;2024-02-26T02:35:28;18.60;99.90
17740;DHT22;8990;33.226;-97.150;2024-02-26T02:37:57;18.40;99.90
17740;DHT22;8990;33.226;-97.150;2024-02-26T02:40:27;18.30;99.90
17740;DHT22;8990;33.226;-97.150;2024-02-26T02:42:55;18.20;99.90
17740;DHT22;8990;33.226;-97.150;2024-02-26T02:45:25;18.10;99.90
17740;DHT22;8990;33.226;-97.150;2024-02-26T02:47:54;18.10;99.90
17740;DHT22;8990;33.226;-97.150;2024-02-26T02:50:23;18.00;99.90
17740;DHT22;8990;33.226;-97.150;2024-02-26T02:52:53;18.00;99.90
17740;DHT22;8990;33.226;-97.150;2024-02-26T02:55:22;17.90;99.90
17740;DHT22;8990;33.226;-97.150;2024-02-26T02:57:51;17.80;99.90
17740;DHT22;8990;33.226;-97.150;2024-02-26T03:00:20;17.70;99.90
17740;DHT22;8990;33.226;-97.150;2024-02-26T03:02:50;17.60;99.90
17740;DHT22;8990;33.226;-97.150;2024-02-26T03:05:19;17.60;99.90
17740;DHT22;8990;33.226;-97.150;2024-02-26T03:07:48;17.60;99.90
17740;DHT22;8990;33.226;-97.150;2024-02-26T03:10:17;17.50;99.90
17740;DHT22;8990;33.226;-97.150;2024-02-26T03:12:46;17.40;99.90
17740;DHT22;8990;33.226;-97.150;2024-02-26T03:15:15;17.40;99.90
17740;DHT22;8990;33.226;-97.150;2024-02-26T03:17:44;17.40;99.90
17740;DHT22;8990;33.226;-97.150;2024-02-26T03:20:13;17.40;99.90
17740;DHT22;8990;33.226;-97.150;2024-02-26T03:22:42;17.30;99.90
17740;DHT22;8990;33.226;-97.150;2024-02-26T03:25:11;17.30;99.90
17740;DHT22;8990;33.226;-97.150;2024-02-26T03:27:42;17.20;99.90
17740;DHT22;8990;33.226;-97.150;2024-02-26T03:30:11;17.10;99.90
17740;DHT22;8990;33.226;-97.150;2024-02-26T03:32:40;17.00;99.90
17740;DHT22;8990;33.226;-97.150;2024-02-26T03:35:10;16.90;99.90
17740;DHT22;8990;33.226;-97.150;2024-02-26T03:37:39;16.90;99.90
17740;DHT22;8990;33.226;-97.150;2024-02-26T03:40:08;16.80;99.90
17740;DHT22;8990;33.226;-97.150;2024-02-26T03:42:41;16.70;99.90
17740;DHT22;8990;33.226;-97.150;2024-02-26T03:45:11;16.70;99.90
17740;DHT22;8990;33.226;-97.150;2024-02-26T03:47:40;16.70;99.90
17740;DHT22;8990;33.226;-97.150;2024-02-26T03:50:09;16.70;99.90
17740;DHT22;8990;33.226;-97.150;2024-02-26T03:52:38;16.70;99.90
17740;DHT22;8990;33.226;-97.150;2024-02-26T03:55:07;16.70;99.90
17740;DHT22;8990;33.226;-97.150;2024-02-26T03:57:37;16.70;99.90
17740;DHT22;8990;33.226;-97.150;2024-02-26T04:00:08;16.70;99.90
17740;DHT22;8990;33.226;-97.150;2024-02-26T04:02:39;16.70;99.90
17740;DHT22;8990;33.226;-97.150;2024-02-26T04:05:10;16.60;99.90
17740;DHT22;8990;33.226;-97.150;2024-02-26T04:07:39;16.60;99.90
17740;DHT22;8990;33.226;-97.150;2024-02-26T04:10:10;16.60;99.90
17740;DHT22;8990;33.226;-97.150;2024-02-26T04:12:39;16.70;99.90
17740;DHT22;8990;33.226;-97.150;2024-02-26T04:15:11;16.50;99.90
17740;DHT22;8990;33.226;-97.150;2024-02-26T04:17:40;16.40;99.90
17740;DHT22;8990;33.226;-97.150;2024-02-26T04:20:14;16.40;99.90
17740;DHT22;8990;33.226;-97.150;2024-02-26T04:22:44;16.40;99.90
17740;DHT22;8990;33.226;-97.150;2024-02-26T04:25:13;16.40;99.90
17740;DHT22;8990;33.226;-97.150;2024-02-26T04:27:42;16.30;99.90
17740;DHT22;8990;33.226;-97.150;2024-02-26T04:30:13;16.30;99.90
17740;DHT22;8990;33.226;-97.150;2024-02-26T04:32:42;16.20;99.90
17740;DHT22;8990;33.226;-97.150;2024-02-26T04:35:11;16.20;99.90
17740;DHT22;8990;33.226;-97.150;2024-02-26T04:37:40;16.20;99.90
17740;DHT22;8990;33.226;-97.150;2024-02-26T04:40:09;16.20;99.90
17740;DHT22;8990;33.226;-97.150;2024-02-26T04:42:38;16.10;99.90
17740;DHT22;8990;33.226;-97.150;2024-02-26T04:45:07;16.10;99.90
17740;DHT22;8990;33.226;-97.150;2024-02-26T04:47:38;16.10;99.90
17740;DHT22;8990;33.226;-97.150;2024-02-26T04:50:07;15.90;99.90
17740;DHT22;8990;33.226;-97.150;2024-02-26T04:52:37;15.80;99.90
17740;DHT22;8990;33.226;-97.150;2024-02-26T04:55:06;15.80;99.90
17740;DHT22;8990;33.226;-97.150;2024-02-26T04:57:35;15.70;99.90
17740;DHT22;8990;33.226;-97.150;2024-02-26T05:00:05;15.70;99.90
17740;DHT22;8990;33.226;-97.150;2024-02-26T05:02:35;15.70;99.90
17740;DHT22;8990;33.226;-97.150;2024-02-26T05:05:08;15.70;99.90
17740;DHT22;8990;33.226;-97.150;2024-02-26T05:07:40;15.60;99.90
17740;DHT22;8990;33.226;-97.150;2024-02-26T05:10:10;15.60;99.90
17740;DHT22;8990;33.226;-97.150;2024-02-26T05:12:39;15.60;99.90
17740;DHT22;8990;33.226;-97.150;2024-02-26T05:15:10;15.60;99.90
17740;DHT22;8990;33.226;-97.150;2024-02-26T05:17:45;15.60;99.90
17740;DHT22;8990;33.226;-97.150;2024-02-26T05:20:15;15.60;99.90
17740;DHT22;8990;33.226;-97.150;2024-02-26T05:22:44;15.50;99.90
17740;DHT22;8990;33.226;-97.150;2024-02-26T05:25:15;15.50;99.90
17740;DHT22;8990;33.226;-97.150;2024-02-26T05:27:45;15.40;99.90
17740;DHT22;8990;33.226;-97.150;2024-02-26T05:30:14;15.30;99.90
17740;DHT22;8990;33.226;-97.150;2024-02-26T05:32:43;15.30;99.90
17740;DHT22;8990;33.226;-97.150;2024-02-26T05:35:14;15.30;99.90
17740;DHT22;8990;33.226;-97.150;2024-02-26T05:37:43;15.30;99.90
17740;DHT22;8990;33.226;-97.150;2024-02-26T05:40:13;15.20;99.90
17740;DHT22;8990;33.226;-97.150;2024-02-26T05:42:42;15.10;99.90
17740;DHT22;8990;33.226;-97.150;2024-02-26T05:45:12;15.10;99.90
17740;DHT22;8990;33.226;-97.150;2024-02-26T05:47:41;15.10;99.90
17740;DHT22;8990;33.226;-97.150;2024-02-26T05:50:11;15.10;99.90
17740;DHT22;8990;33.226;-97.150;2024-02-26T05:52:43;15.10;99.90
17740;DHT22;8990;33.226;-97.150;2024-02-26T05:55:13;15.10;99.90
17740;DHT22;8990;33.226;-97.150;2024-02-26T05:57:42;15.00;99.90
17740;DHT22;8990;33.226;-97.150;2024-02-26T06:00:12;15.10;99.90
17740;DHT22;8990;33.226;-97.150;2024-02-26T06:02:41;15.00;99.90
17740;DHT22;8990;33.226;-97.150;2024-02-26T06:05:10;15.00;99.90
17740;DHT22;8990;33.226;-97.150;2024-02-26T06:07:39;15.00;99.90
17740;DHT22;8990;33.226;-97.150;2024-02-26T06:10:10;15.00;99.90
17740;DHT22;8990;33.226;-97.150;2024-02-26T06:12:40;15.00;99.90
17740;DHT22;8990;33.226;-97.150;2024-02-26T06:15:10;15.00;99.90
17740;DHT22;8990;33.226;-97.150;2024-02-26T06:17:39;15.00;99.90
17740;DHT22;8990;33.226;-97.150;2024-02-26T06:20:08;15.00;99.90
17740;DHT22;8990;33.226;-97.150;2024-02-26T06:22:40;14.90;99.90
17740;DHT22;8990;33.226;-97.150;2024-02-26T06:25:11;14.90;99.90
17740;DHT22;8990;33.226;-97.150;2024-02-26T06:27:40;14.90;99.90
17740;DHT22;8990;33.226;-97.150;2024-02-26T06:30:09;14.90;99.90
17740;DHT22;8990;33.226;-97.150;2024-02-26T06:32:38;14.90;99.90
17740;DHT22;8990;33.226;-97.150;2024-02-26T06:35:07;14.90;99.90
17740;DHT22;8990;33.226;-97.150;2024-02-26T06:37:38;14.90;99.90
17740;DHT22;8990;33.226;-97.150;2024-02-26T06:40:08;15.00;99.90
17740;DHT22;8990;33.226;-97.150;2024-02-26T06:42:38;15.00;99.90
17740;DHT22;8990;33.226;-97.150;2024-02-26T06:45:08;15.10;99.90
17740;DHT22;8990;33.226;-97.150;2024-02-26T06:47:37;15.20;99.90
17740;DHT22;8990;33.226;-97.150;2024-02-26T06:50:06;15.30;99.90
17740;DHT22;8990;33.226;-97.150;2024-02-26T06:52:35;15.50;99.90
17740;DHT22;8990;33.226;-97.150;2024-02-26T06:55:04;15.60;99.90
17740;DHT22;8990;33.226;-97.150;2024-02-26T06:57:35;15.80;99.90
17740;DHT22;8990;33.226;-97.150;2024-02-26T07:00:06;15.90;99.90
17740;DHT22;8990;33.226;-97.150;2024-02-26T07:02:35;16.00;99.90
17740;DHT22;8990;33.226;-97.150;2024-02-26T07:05:05;16.10;99.90
17740;DHT22;8990;33.226;-97.150;2024-02-26T07:07:34;16.20;99.90
17740;DHT22;8990;33.226;-97.150;2024-02-26T07:10:03;16.20;99.90
17740;DHT22;8990;33.226;-97.150;2024-02-26T07:12:32;16.30;99.90
17740;DHT22;8990;33.226;-97.150;2024-02-26T07:15:01;16.40;99.90
17740;DHT22;8990;33.226;-97.150;2024-02-26T07:17:32;16.40;99.90
17740;DHT22;8990;33.226;-97.150;2024-02-26T07:20:01;16.50;99.90
17740;DHT22;8990;33.226;-97.150;2024-02-26T07:22:31;16.50;99.90
17740;DHT22;8990;33.226;-97.150;2024-02-26T07:25:00;16.50;99.90
17740;DHT22;8990;33.226;-97.150;2024-02-26T07:27:30;16.60;99.90
17740;DHT22;8990;33.226;-97.150;2024-02-26T07:29:59;16.60;99.90
17740;DHT22;8990;33.226;-97.150;2024-02-26T07:32:28;16.60;99.90
17740;DHT22;8990;33.226;-97.150;2024-02-26T07:34:58;16.60;99.90
17740;DHT22;8990;33.226;-97.150;2024-02-26T07:37:27;16.60;99.90
17740;DHT22;8990;33.226;-97.150;2024-02-26T07:39:56;16.70;99.90
17740;DHT22;8990;33.226;-97.150;2024-02-26T07:42:26;16.60;99.90
17740;DHT22;8990;33.226;-97.150;2024-02-26T07:44:55;16.70;99.90
17740;DHT22;8990;33.226;-97.150;2024-02-26T07:47:24;16.70;99.90
17740;DHT22;8990;33.226;-97.150;2024-02-26T07:49:52;16.70;99.90
17740;DHT22;8990;33.226;-97.150;2024-02-26T07:52:23;16.80;99.90
17740;DHT22;8990;33.226;-97.150;2024-02-26T07:54:52;16.80;99.90
17740;DHT22;8990;33.226;-97.150;2024-02-26T07:57:21;16.80;99.90
17740;DHT22;8990;33.226;-97.150;2024-02-26T07:59:50;16.80;99.90
17740;DHT22;8990;33.226;-97.150;2024-02-26T08:02:19;16.70;99.90
17740;DHT22;8990;33.226;-97.150;2024-02-26T08:04:49;16.70;99.90
17740;DHT22;8990;33.226;-97.150;2024-02-26T08:07:18;16.70;99.90
17740;DHT22;8990;33.226;-97.150;2024-02-26T08:09:49;16.80;99.90
17740;DHT22;8990;33.226;-97.150;2024-02-26T08:12:18;16.80;99.90
17740;DHT22;8990;33.226;-97.150;2024-02-26T08:14:47;16.80;99.90
17740;DHT22;8990;33.226;-97.150;2024-02-26T08:17:16;16.80;99.90
17740;DHT22;8990;33.226;-97.150;2024-02-26T08:19:45;16.70;99.90
17740;DHT22;8990;33.226;-97.150;2024-02-26T08:22:14;16.70;99.90
17740;DHT22;8990;33.226;-97.150;2024-02-26T08:24:44;16.80;99.90
17740;DHT22;8990;33.226;-97.150;2024-02-26T08:27:15;16.80;99.90
17740;DHT22;8990;33.226;-97.150;2024-02-26T08:29:44;16.70;99.90
17740;DHT22;8990;33.226;-97.150;2024-02-26T08:32:13;16.70;99.90
17740;DHT22;8990;33.226;-97.150;2024-02-26T08:34:42;16.70;99.90
17740;DHT22;8990;33.226;-97.150;2024-02-26T08:37:11;16.70;99.90
17740;DHT22;8990;33.226;-97.150;2024-02-26T08:39:40;16.70;99.90
17740;DHT22;8990;33.226;-97.150;2024-02-26T08:42:09;16.70;99.90
17740;DHT22;8990;33.226;-97.150;2024-02-26T08:44:39;16.70;99.90
17740;DHT22;8990;33.226;-97.150;2024-02-26T08:47:08;16.70;99.90
17740;DHT22;8990;33.226;-97.150;2024-02-26T08:49:37;16.60;99.90
17740;DHT22;8990;33.226;-97.150;2024-02-26T08:52:06;16.60;99.90
17740;DHT22;8990;33.226;-97.150;2024-02-26T08:54:35;16.60;99.90
17740;DHT22;8990;33.226;-97.150;2024-02-26T08:57:05;16.60;99.90
17740;DHT22;8990;33.226;-97.150;2024-02-26T08:59:34;16.50;99.90
17740;DHT22;8990;33.226;-97.150;2024-02-26T09:02:05;16.50;99.90
17740;DHT22;8990;33.226;-97.150;2024-02-26T09:04:35;16.50;99.90
17740;DHT22;8990;33.226;-97.150;2024-02-26T09:07:04;16.50;99.90
17740;DHT22;8990;33.226;-97.150;2024-02-26T09:09:33;16.50;99.90
17740;DHT22;8990;33.226;-97.150;2024-02-26T09:12:03;16.50;99.90
17740;DHT22;8990;33.226;-97.150;2024-02-26T09:14:32;16.60;99.90
17740;DHT22;8990;33.226;-97.150;2024-02-26T09:17:01;16.50;99.90
17740;DHT22;8990;33.226;-97.150;2024-02-26T09:19:31;16.50;99.90
17740;DHT22;8990;33.226;-97.150;2024-02-26T09:22:00;16.50;99.90
17740;DHT22;8990;33.226;-97.150;2024-02-26T09:24:29;16.50;99.90
17740;DHT22;8990;33.226;-97.150;2024-02-26T09:26:58;16.40;99.90
17740;DHT22;8990;33.226;-97.150;2024-02-26T09:29:27;16.40;99.90
17740;DHT22;8990;33.226;-97.150;2024-02-26T09:31:56;16.40;99.90
17740;DHT22;8990;33.226;-97.150;2024-02-26T09:34:25;16.30;99.90
17740;DHT22;8990;33.226;-97.150;2024-02-26T09:36:56;16.30;99.90
17740;DHT22;8990;33.226;-97.150;2024-02-26T09:39:25;16.20;99.90
17740;DHT22;8990;33.226;-97.150;2024-02-26T09:41:55;16.20;99.90
17740;DHT22;8990;33.226;-97.150;2024-02-26T09:44:29;16.20;99.90
17740;DHT22;8990;33.226;-97.150;2024-02-26T09:47:01;16.10;99.90
17740;DHT22;8990;33.226;-97.150;2024-02-26T09:49:30;16.10;99.90
17740;DHT22;8990;33.226;-97.150;2024-02-26T09:52:01;16.10;99.90
17740;DHT22;8990;33.226;-97.150;2024-02-26T09:54:31;16.00;99.90
17740;DHT22;8990;33.226;-97.150;2024-02-26T09:57:02;16.00;99.90
17740;DHT22;8990;33.226;-97.150;2024-02-26T09:59:38;16.00;99.90
17740;DHT22;8990;33.226;-97.150;2024-02-26T10:02:11;15.90;99.90
17740;DHT22;8990;33.226;-97.150;2024-02-26T10:04:40;15.90;99.90
17740;DHT22;8990;33.226;-97.150;2024-02-26T10:07:12;15.80;99.90
17740;DHT22;8990;33.226;-97.150;2024-02-26T10:09:41;15.80;99.90
17740;DHT22;8990;33.226;-97.150;2024-02-26T10:12:11;15.80;99.90
17740;DHT22;8990;33.226;-97.150;2024-02-26T10:14:42;15.70;99.90
17740;DHT22;8990;33.226;-97.150;2024-02-26T10:17:12;15.70;99.90
17740;DHT22;8990;33.226;-97.150;2024-02-26T10:19:41;15.60;99.90
17740;DHT22;8990;33.226;-97.150;2024-02-26T10:22:18;15.70;99.90
17740;DHT22;8990;33.226;-97.150;2024-02-26T10:24:50;15.60;99.90
17740;DHT22;8990;33.226;-97.150;2024-02-26T10:27:19;15.50;99.90
17740;DHT22;8990;33.226;-97.150;2024-02-26T10:29:48;15.50;99.90
17740;DHT22;8990;33.226;-97.150;2024-02-26T10:32:19;15.40;99.90
17740;DHT22;8990;33.226;-97.150;2024-02-26T10:34:48;15.40;99.90
17740;DHT22;8990;33.226;-97.150;2024-02-26T10:37:18;15.40;99.90
17740;DHT22;8990;33.226;-97.150;2024-02-26T10:39:47;15.30;99.90
17740;DHT22;8990;33.226;-97.150;2024-02-26T10:42:16;15.30;99.90
17740;DHT22;8990;33.226;-97.150;2024-02-26T10:44:46;15.20;99.90
17740;DHT22;8990;33.226;-97.150;2024-02-26T10:47:16;15.20;99.90
17740;DHT22;8990;33.226;-97.150;2024-02-26T10:49:48;15.10;99.90
17740;DHT22;8990;33.226;-97.150;2024-02-26T10:52:21;15.10;99.90
17740;DHT22;8990;33.226;-97.150;2024-02-26T10:54:54;15.10;99.90
17740;DHT22;8990;33.226;-97.150;2024-02-26T10:57:25;15.10;99.90
17740;DHT22;8990;33.226;-97.150;2024-02-26T10:59:56;15.10;99.90
17740;DHT22;8990;33.226;-97.150;2024-02-26T11:02:26;15.10;99.90
17740;DHT22;8990;33.226;-97.150;2024-02-26T11:04:56;15.10;99.90
17740;DHT22;8990;33.226;-97.150;2024-02-26T11:07:27;15.00;99.90
17740;DHT22;8990;33.226;-97.150;2024-02-26T11:09:57;15.00;99.90
17740;DHT22;8990;33.226;-97.150;2024-02-26T11:12:29;15.00;99.90
17740;DHT22;8990;33.226;-97.150;2024-02-26T11:14:58;15.00;99.90
17740;DHT22;8990;33.226;-97.150;2024-02-26T11:17:28;15.00;99.90
17740;DHT22;8990;33.226;-97.150;2024-02-26T11:19:59;14.90;99.90
17740;DHT22;8990;33.226;-97.150;2024-02-26T11:22:30;14.90;99.90
17740;DHT22;8990;33.226;-97.150;2024-02-26T11:25:00;14.90;99.90
17740;DHT22;8990;33.226;-97.150;2024-02-26T11:27:31;14.80;99.90
17740;DHT22;8990;33.226;-97.150;2024-02-26T11:30:02;14.80;99.90
17740;DHT22;8990;33.226;-97.150;2024-02-26T11:32:32;14.70;99.90
17740;DHT22;8990;33.226;-97.150;2024-02-26T11:35:02;14.70;99.90
17740;DHT22;8990;33.226;-97.150;2024-02-26T11:37:35;14.70;99.90
17740;DHT22;8990;33.226;-97.150;2024-02-26T11:40:04;14.60;99.90
17740;DHT22;8990;33.226;-97.150;2024-02-26T11:42:34;14.60;99.90
17740;DHT22;8990;33.226;-97.150;2024-02-26T11:45:47;14.60;99.90
17740;DHT22;8990;33.226;-97.150;2024-02-26T11:48:21;14.50;99.90
17740;DHT22;8990;33.226;-97.150;2024-02-26T11:50:52;14.40;99.90
17740;DHT22;8990;33.226;-97.150;2024-02-26T11:53:24;14.40;99.90
17740;DHT22;8990;33.226;-97.150;2024-02-26T11:56:23;14.40;99.90
17740;DHT22;8990;33.226;-97.150;2024-02-26T11:59:03;14.40;99.90
17740;DHT22;8990;33.226;-97.150;2024-02-26T12:01:40;14.30;99.90
17740;DHT22;8990;33.226;-97.150;2024-02-26T12:04:11;14.30;99.90
17740;DHT22;8990;33.226;-97.150;2024-02-26T12:06:46;14.40;99.90
17740;DHT22;8990;33.226;-97.150;2024-02-26T12:09:35;14.40;99.90
17740;DHT22;8990;33.226;-97.150;2024-02-26T12:12:05;14.40;99.90
17740;DHT22;8990;33.226;-97.150;2024-02-26T12:14:37;14.40;99.90
17740;DHT22;8990;33.226;-97.150;2024-02-26T12:17:07;14.40;99.90
17740;DHT22;8990;33.226;-97.150;2024-02-26T12:19:36;14.40;99.90
17740;DHT22;8990;33.226;-97.150;2024-02-26T12:22:07;14.40;99.90
17740;DHT22;8990;33.226;-97.150;2024-02-26T12:24:38;14.40;99.90
17740;DHT22;8990;33.226;-97.150;2024-02-26T12:27:07;14.40;99.90
17740;DHT22;8990;33.226;-97.150;2024-02-26T12:29:36;14.30;99.90
17740;DHT22;8990;33.226;-97.150;2024-02-26T12:32:06;14.30;99.90
17740;DHT22;8990;33.226;-97.150;2024-02-26T12:34:35;14.30;99.90
17740;DHT22;8990;33.226;-97.150;2024-02-26T12:37:04;14.30;99.90
17740;DHT22;8990;33.226;-97.150;2024-02-26T12:39:37;14.30;99.90
17740;DHT22;8990;33.226;-97.150;2024-02-26T12:42:07;14.30;99.90
17740;DHT22;8990;33.226;-97.150;2024-02-26T12:44:36;14.20;99.90
17740;DHT22;8990;33.226;-97.150;2024-02-26T12:47:06;14.20;99.90
17740;DHT22;8990;33.226;-97.150;2024-02-26T12:49:35;14.20;99.90
17740;DHT22;8990;33.226;-97.150;2024-02-26T12:52:05;14.10;99.90
17740;DHT22;8990;33.226;-97.150;2024-02-26T12:54:37;14.10;99.90
17740;DHT22;8990;33.226;-97.150;2024-02-26T12:57:08;14.10;99.90
17740;DHT22;8990;33.226;-97.150;2024-02-26T12:59:38;14.10;99.90
17740;DHT22;8990;33.226;-97.150;2024-02-26T13:02:07;14.10;99.90
17740;DHT22;8990;33.226;-97.150;2024-02-26T13:04:39;14.00;99.90
17740;DHT22;8990;33.226;-97.150;2024-02-26T13:07:08;14.00;99.90
17740;DHT22;8990;33.226;-97.150;2024-02-26T13:09:39;14.00;99.90
17740;DHT22;8990;33.226;-97.150;2024-02-26T13:12:09;14.00;99.90
17740;DHT22;8990;33.226;-97.150;2024-02-26T13:14:38;14.00;99.90
17740;DHT22;8990;33.226;-97.150;2024-02-26T13:17:07;14.00;99.90
17740;DHT22;8990;33.226;-97.150;2024-02-26T13:19:36;14.00;99.90
17740;DHT22;8990;33.226;-97.150;2024-02-26T13:22:06;14.00;99.90
17740;DHT22;8990;33.226;-97.150;2024-02-26T13:24:35;14.10;99.90
17740;DHT22;8990;33.226;-97.150;2024-02-26T13:27:06;14.10;99.90
17740;DHT22;8990;33.226;-97.150;2024-02-26T13:29:35;14.20;99.90
17740;DHT22;8990;33.226;-97.150;2024-02-26T13:32:05;14.20;99.90
17740;DHT22;8990;33.226;-97.150;2024-02-26T13:34:34;14.30;99.90
17740;DHT22;8990;33.226;-97.150;2024-02-26T13:37:03;14.30;99.90
17740;DHT22;8990;33.226;-97.150;2024-02-26T13:39:32;14.40;99.90
17740;DHT22;8990;33.226;-97.150;2024-02-26T13:42:01;14.40;99.90
17740;DHT22;8990;33.226;-97.150;2024-02-26T13:44:32;14.50;99.90
17740;DHT22;8990;33.226;-97.150;2024-02-26T13:47:04;14.60;99.90
17740;DHT22;8990;33.226;-97.150;2024-02-26T13:49:33;14.60;99.90
17740;DHT22;8990;33.226;-97.150;2024-02-26T13:52:02;14.70;99.90
17740;DHT22;8990;33.226;-97.150;2024-02-26T13:54:36;14.80;99.90
17740;DHT22;8990;33.226;-97.150;2024-02-26T13:57:07;14.90;99.90
17740;DHT22;8990;33.226;-97.150;2024-02-26T13:59:38;15.00;99.90
17740;DHT22;8990;33.226;-97.150;2024-02-26T14:02:09;15.10;99.90
17740;DHT22;8990;33.226;-97.150;2024-02-26T14:04:38;15.20;99.90
17740;DHT22;8990;33.226;-97.150;2024-02-26T14:07:07;15.30;99.90
17740;DHT22;8990;33.226;-97.150;2024-02-26T14:09:37;15.40;99.90
17740;DHT22;8990;33.226;-97.150;2024-02-26T14:12:06;15.60;99.90
17740;DHT22;8990;33.226;-97.150;2024-02-26T14:14:35;15.70;99.90
17740;DHT22;8990;33.226;-97.150;2024-02-26T14:17:08;15.90;99.90
17740;DHT22;8990;33.226;-97.150;2024-02-26T14:19:37;16.00;99.90
17740;DHT22;8990;33.226;-97.150;2024-02-26T14:22:07;16.10;99.90
17740;DHT22;8990;33.226;-97.150;2024-02-26T14:24:36;16.30;99.90
17740;DHT22;8990;33.226;-97.150;2024-02-26T14:27:09;16.40;99.90
17740;DHT22;8990;33.226;-97.150;2024-02-26T14:29:38;16.60;99.90
17740;DHT22;8990;33.226;-97.150;2024-02-26T14:32:10;16.80;99.90
17740;DHT22;8990;33.226;-97.150;2024-02-26T14:34:39;16.90;99.90
17740;DHT22;8990;33.226;-97.150;2024-02-26T14:37:08;17.10;99.90
17740;DHT22;8990;33.226;-97.150;2024-02-26T14:39:37;17.20;99.90
17740;DHT22;8990;33.226;-97.150;2024-02-26T14:42:07;17.40;99.90
17740;DHT22;8990;33.226;-97.150;2024-02-26T14:44:36;17.60;99.90
17740;DHT22;8990;33.226;-97.150;2024-02-26T14:47:05;17.70;99.90
17740;DHT22;8990;33.226;-97.150;2024-02-26T14:49:35;17.80;99.90
17740;DHT22;8990;33.226;-97.150;2024-02-26T14:52:05;18.00;99.90
17740;DHT22;8990;33.226;-97.150;2024-02-26T14:54:34;18.10;99.90
17740;DHT22;8990;33.226;-97.150;2024-02-26T14:57:06;18.20;99.90
17740;DHT22;8990;33.226;-97.150;2024-02-26T14:59:35;18.30;99.90
17740;DHT22;8990;33.226;-97.150;2024-02-26T15:02:05;18.40;99.90
17740;DHT22;8990;33.226;-97.150;2024-02-26T15:04:38;18.60;99.90
17740;DHT22;8990;33.226;-97.150;2024-02-26T15:07:07;18.80;99.90
17740;DHT22;8990;33.226;-97.150;2024-02-26T15:09:36;18.90;99.90
17740;DHT22;8990;33.226;-97.150;2024-02-26T15:12:07;19.10;99.90
17740;DHT22;8990;33.226;-97.150;2024-02-26T15:14:36;19.30;99.90
17740;DHT22;8990;33.226;-97.150;2024-02-26T15:17:05;19.50;99.90
17740;DHT22;8990;33.226;-97.150;2024-02-26T15:19:39;19.60;99.90
17740;DHT22;8990;33.226;-97.150;2024-02-26T15:22:08;19.80;99.90
17740;DHT22;8990;33.226;-97.150;2024-02-26T15:24:36;20.00;99.90
17740;DHT22;8990;33.226;-97.150;2024-02-26T15:27:05;20.10;99.90
17740;DHT22;8990;33.226;-97.150;2024-02-26T15:29:35;20.40;99.90
17740;DHT22;8990;33.226;-97.150;2024-02-26T15:32:04;20.60;99.90